Time;durP1;ratioP1;P1;durP2;ratioP2;P2;SDS_P1;SDS_P2;PMS_P1;PMS_P2;Temp;Humidity;BMP_temperature;BMP_pressure;BME280_temperature;BME280_humidity;BME280_pressure;Samples;Min_cycle;Max_cycle;Signal;HPM_P1;HPM_P2
2023/07/06 00:00:16;;;;;;;2.88;0.82;;;;;;;9.16;59.38;101291.09;4987873;28;20116;-76
2023/07/06 00:02:42;;;;;;;5.45;1.60;;;;;;;8.90;60.30;101289.16;4985619;28;20040;-76
2023/07/06 00:05:09;;;;;;;3.95;1.30;;;;;;;8.62;60.92;101298.56;4988078;28;20073;-76
2023/07/06 00:07:35;;;;;;;7.35;1.35;;;;;;;9.01;59.94;101291.50;4990520;28;20050;-75
2023/07/06 00:10:01;;;;;;;3.85;1.13;;;;;;;8.88;60.20;101288.34;4988905;28;20029;-76
2023/07/06 00:12:29;;;;;;;8.55;3.03;;;;;;;9.03;59.69;101292.31;4975684;28;20037;-76
2023/07/06 00:14:54;;;;;;;4.45;1.48;;;;;;;8.74;60.99;101298.28;4986851;28;20041;-76
2023/07/06 00:17:22;;;;;;;6.28;1.20;;;;;;;9.10;59.58;101295.63;4970214;28;20030;-76
2023/07/06 00:19:48;;;;;;;5.85;1.13;;;;;;;9.17;59.00;101287.56;4972350;28;20395;-76
2023/07/06 00:22:14;;;;;;;3.33;0.98;;;;;;;9.05;59.45;101289.66;4969881;28;20121;-76
2023/07/06 00:24:41;;;;;;;3.72;1.13;;;;;;;8.70;61.07;101299.22;4969035;28;20044;-75
2023/07/06 00:27:07;;;;;;;2.83;0.80;;;;;;;8.64;60.99;101302.81;4989350;28;20777;-76
2023/07/06 00:29:45;;;;;;;10.82;1.58;;;;;;;8.42;62.15;101302.50;4965660;28;20046;-75
2023/07/06 00:32:26;;;;;;;4.03;1.38;;;;;;;8.78;60.92;101307.72;4986463;28;20034;-75
2023/07/06 00:34:52;;;;;;;7.45;1.45;;;;;;;8.95;60.16;101302.09;4985494;28;20685;-76
2023/07/06 00:37:20;;;;;;;6.28;1.85;;;;;;;8.57;61.25;101301.28;4985227;28;20468;-75
2023/07/06 00:39:45;;;;;;;5.63;1.30;;;;;;;8.67;61.16;101307.09;4984087;28;20038;-75
2023/07/06 00:42:16;;;;;;;6.28;2.28;;;;;;;8.87;60.70;101314.44;4988273;28;20525;-75
2023/07/06 00:44:47;;;;;;;7.97;2.08;;;;;;;8.59;61.30;101314.28;4985140;28;20079;-75
2023/07/06 00:47:13;;;;;;;4.40;1.73;;;;;;;8.95;60.58;101312.50;5001653;28;20030;-75
2023/07/06 00:49:40;;;;;;;6.20;1.30;;;;;;;8.71;61.50;101320.03;4962771;28;20319;-75
2023/07/06 00:52:07;;;;;;;7.97;1.65;;;;;;;8.91;60.60;101321.31;4972052;28;20192;-75
2023/07/06 00:54:39;;;;;;;5.70;2.03;;;;;;;8.77;60.68;101321.66;4964230;28;20161;-75
2023/07/06 00:57:08;;;;;;;4.80;2.00;;;;;;;8.82;60.87;101319.78;4987582;28;20033;-75
2023/07/06 00:59:37;;;;;;;7.05;1.55;;;;;;;8.79;60.39;101317.25;4983276;28;20704;-76
2023/07/06 01:02:04;;;;;;;2.85;1.52;;;;;;;9.01;60.02;101321.91;4987552;28;20033;-76
2023/07/06 01:04:30;;;;;;;2.15;1.33;;;;;;;9.06;59.68;101322.66;4981686;28;20305;-76
2023/07/06 01:06:56;;;;;;;5.38;2.45;;;;;;;8.68;61.16;101329.69;4986686;28;20044;-78
2023/07/06 01:09:25;;;;;;;5.25;2.53;;;;;;;8.84;60.60;101325.81;4981997;28;20147;-75
2023/07/06 01:11:51;;;;;;;3.17;1.67;;;;;;;8.97;60.38;101332.44;4985240;28;20037;-76
2023/07/06 01:14:16;;;;;;;2.65;1.48;;;;;;;9.11;59.58;101328.59;4984828;28;20500;-76
2023/07/06 01:16:58;;;;;;;6.63;1.83;;;;;;;9.06;59.67;101330.47;4986739;28;20124;-76
2023/07/06 01:19:36;;;;;;;8.43;2.03;;;;;;;9.02;59.79;101334.06;4976468;28;20038;-76
2023/07/06 01:22:40;;;;;;;7.20;2.10;;;;;;;8.99;59.83;101335.00;4985603;28;20076;-76
2023/07/06 01:25:43;;;;;;;5.90;2.33;;;;;;;8.91;60.19;101343.00;4988611;28;20153;-76
2023/07/06 01:28:30;;;;;;;5.22;1.50;;;;;;;8.91;60.37;101332.56;4986022;28;20034;-76
2023/07/06 01:31:13;;;;;;;5.47;1.77;;;;;;;8.94;59.98;101342.06;4995483;28;20033;-76
2023/07/06 01:33:48;;;;;;;5.43;2.35;;;;;;;8.77;60.67;101329.47;4985004;28;20161;-76
2023/07/06 01:36:24;;;;;;;3.47;2.28;;;;;;;8.95;59.96;101334.22;4986889;28;20104;-76
2023/07/06 01:39:10;;;;;;;6.15;1.88;;;;;;;9.05;59.88;101339.19;4984449;28;20124;-75
2023/07/06 01:41:35;;;;;;;4.47;1.70;;;;;;;8.90;60.68;101338.69;4985447;28;20049;-76
2023/07/06 01:44:01;;;;;;;3.15;2.50;;;;;;;8.89;60.76;101339.56;4986437;28;20050;-76
2023/07/06 01:46:26;;;;;;;2.85;2.35;;;;;;;9.08;60.01;101344.34;4984985;28;20042;-76
2023/07/06 01:48:52;;;;;;;8.07;2.53;;;;;;;9.05;60.43;101350.47;4983341;28;21050;-76
2023/07/06 01:51:36;;;;;;;4.70;2.45;;;;;;;8.81;61.13;101346.75;4985447;28;20026;-76
2023/07/06 01:54:11;;;;;;;5.57;1.83;;;;;;;8.99;60.46;101348.03;4985007;28;20069;-75
2023/07/06 01:56:59;;;;;;;4.90;2.13;;;;;;;8.98;60.84;101349.81;4985755;28;20033;-76
2023/07/06 01:59:28;;;;;;;3.92;2.10;;;;;;;9.21;60.06;101345.72;4983133;28;20061;-76
2023/07/06 02:02:00;;;;;;;7.05;2.45;;;;;;;9.26;59.97;101351.66;4984790;28;20124;-74
2023/07/06 02:04:28;;;;;;;11.20;2.45;;;;;;;8.68;61.82;101351.38;4984618;28;20045;-76
2023/07/06 02:06:54;;;;;;;10.10;3.00;;;;;;;8.93;61.59;101353.41;4996021;28;20049;-76
2023/07/06 02:09:20;;;;;;;5.15;2.50;;;;;;;9.15;60.79;101345.88;4992498;28;20129;-75
2023/07/06 02:11:46;;;;;;;4.97;2.40;;;;;;;9.40;60.32;101352.13;4985796;28;20061;-76
2023/07/06 02:14:11;;;;;;;4.50;2.25;;;;;;;9.21;60.91;101353.56;4985771;28;20046;-75
2023/07/06 02:16:37;;;;;;;8.63;3.75;;;;;;;9.34;60.43;101352.31;4985807;28;20643;-75
2023/07/06 02:19:03;;;;;;;4.53;2.50;;;;;;;9.56;59.70;101346.50;4986665;28;20189;-75
2023/07/06 02:21:31;;;;;;;8.00;2.58;;;;;;;9.21;61.05;101345.72;4991154;28;20034;-75
2023/07/06 02:23:57;;;;;;;5.10;2.53;;;;;;;9.52;60.44;101347.47;4972619;28;20042;-75
2023/07/06 02:26:22;;;;;;;6.40;3.17;;;;;;;9.67;59.71;101349.66;4991327;28;20173;-76
2023/07/06 02:28:48;;;;;;;11.40;3.33;;;;;;;9.02;61.87;101349.72;4994259;28;20754;-76
2023/07/06 02:31:13;;;;;;;9.70;3.00;;;;;;;9.56;60.21;101346.50;4978675;28;20037;-76
2023/07/06 02:33:39;;;;;;;3.08;2.33;;;;;;;9.02;61.92;101354.91;4993929;28;20064;-76
2023/07/06 02:36:04;;;;;;;9.23;3.58;;;;;;;9.11;61.77;101359.91;4994725;28;20033;-76
2023/07/06 02:38:30;;;;;;;5.68;2.83;;;;;;;9.39;60.72;101355.66;4981581;28;20133;-76
2023/07/06 02:41:04;;;;;;;10.15;3.80;;;;;;;9.60;60.35;101356.81;5014770;28;20265;-73
2023/07/06 02:43:30;;;;;;;4.35;3.30;;;;;;;9.47;60.65;101362.41;5002499;28;20217;-73
2023/07/06 02:45:55;;;;;;;5.03;3.05;;;;;;;9.73;60.12;101361.69;5016863;28;20026;-74
2023/07/06 02:48:21;;;;;;;14.18;3.85;;;;;;;9.50;60.70;101357.09;5016971;28;20058;-74
2023/07/06 02:50:51;;;;;;;9.90;4.75;;;;;;;8.95;62.34;101362.91;5000862;28;20050;-77
2023/07/06 02:53:18;;;;;;;9.23;3.92;;;;;;;9.49;61.10;101363.22;4986495;28;20045;-77
2023/07/06 02:55:49;;;;;;;7.45;3.95;;;;;;;9.72;60.37;101365.19;4986665;28;20121;-77
2023/07/06 02:58:15;;;;;;;7.50;3.75;;;;;;;9.82;60.25;101363.22;4970053;28;20523;-76
2023/07/06 03:00:41;;;;;;;9.50;3.58;;;;;;;9.76;60.24;101370.28;4990252;28;20068;-78
2023/07/06 03:03:08;;;;;;;4.97;3.40;;;;;;;9.66;60.49;101363.63;4990657;28;20900;-76
2023/07/06 03:05:35;;;;;;;11.88;3.67;;;;;;;9.56;60.85;101373.44;4969067;28;20179;-76
2023/07/06 03:08:02;;;;;;;6.38;3.95;;;;;;;9.88;59.97;101374.34;4970537;28;20066;-76
2023/07/06 03:10:28;;;;;;;8.93;4.35;;;;;;;9.51;60.89;101375.31;4987198;28;20038;-76
2023/07/06 03:12:54;;;;;;;6.30;3.63;;;;;;;9.75;60.52;101378.16;4970598;28;20867;-77
2023/07/06 03:15:19;;;;;;;8.88;4.72;;;;;;;9.55;61.02;101370.91;4970484;28;20953;-74
2023/07/06 03:17:49;;;;;;;7.90;4.63;;;;;;;9.76;60.11;101383.31;4986497;28;20046;-74
2023/07/06 03:20:19;;;;;;;9.43;5.43;;;;;;;9.69;60.21;101378.34;4997879;28;20026;-77
2023/07/06 03:22:51;;;;;;;8.75;4.22;;;;;;;9.58;60.56;101383.84;4986137;28;20070;-75
2023/07/06 03:25:26;;;;;;;8.75;5.07;;;;;;;9.63;60.45;101381.97;4988636;28;20034;-75
2023/07/06 03:27:52;;;;;;;7.97;4.40;;;;;;;9.76;59.55;101380.72;4983524;28;20060;-75
2023/07/06 03:30:23;;;;;;;11.48;5.18;;;;;;;9.60;60.03;101379.44;4986238;28;20030;-75
2023/07/06 03:32:51;;;;;;;10.75;4.50;;;;;;;9.66;59.40;101381.88;4979905;28;20383;-75
2023/07/06 03:35:18;;;;;;;11.75;4.35;;;;;;;9.57;59.77;101385.59;4967688;28;20932;-75
2023/07/06 03:37:45;;;;;;;10.18;4.93;;;;;;;9.33;60.84;101397.56;4972131;28;20042;-76
2023/07/06 03:40:11;;;;;;;10.88;5.03;;;;;;;9.27;61.04;101402.94;4989010;28;20029;-75
2023/07/06 03:42:45;;;;;;;7.95;5.25;;;;;;;9.42;60.68;101398.22;4999433;28;20042;-75
2023/07/06 03:45:15;;;;;;;10.00;4.68;;;;;;;9.58;60.30;101396.91;5004989;28;20087;-75
2023/07/06 03:47:45;;;;;;;9.73;4.38;;;;;;;9.45;60.83;101398.13;4976864;28;20050;-75
2023/07/06 03:50:14;;;;;;;8.23;5.03;;;;;;;9.50;60.76;101398.84;4988606;28;20030;-75
2023/07/06 03:52:41;;;;;;;8.48;5.15;;;;;;;9.33;60.81;101402.78;4985618;28;20108;-75
2023/07/06 03:55:12;;;;;;;9.15;4.55;;;;;;;9.58;60.37;101395.13;4987016;28;20029;-75
2023/07/06 03:57:39;;;;;;;8.63;4.45;;;;;;;9.72;60.05;101407.81;4990840;28;20657;-75
2023/07/06 04:00:19;;;;;;;6.85;4.25;;;;;;;9.60;60.52;101408.16;4995251;28;20034;-75
2023/07/06 04:02:48;;;;;;;9.35;4.65;;;;;;;9.78;60.20;101405.03;4985559;28;20061;-75
2023/07/06 04:05:17;;;;;;;12.02;4.78;;;;;;;9.83;59.74;101406.69;5001100;28;20056;-75
2023/07/06 04:07:52;;;;;;;7.35;4.50;;;;;;;9.76;60.11;101421.63;4984029;28;20054;-75
2023/07/06 04:10:21;;;;;;;8.55;3.80;;;;;;;9.83;59.62;101406.69;4985572;28;20412;-75
2023/07/06 04:12:48;;;;;;;6.32;4.78;;;;;;;9.47;60.28;101412.00;4981719;28;20496;-75
2023/07/06 04:15:17;;;;;;;10.60;4.63;;;;;;;9.88;59.73;101415.22;4976639;28;20030;-75
2023/07/06 04:17:43;;;;;;;9.68;3.65;;;;;;;9.77;60.08;101416.38;4984976;28;20149;-74
2023/07/06 04:20:18;;;;;;;8.23;4.30;;;;;;;9.51;60.70;101426.66;4986572;28;20486;-75
2023/07/06 04:22:44;;;;;;;5.65;4.15;;;;;;;9.80;60.20;101423.28;4959070;28;20049;-75
2023/07/06 04:25:10;;;;;;;6.68;4.20;;;;;;;10.00;59.88;101427.94;4986609;28;20095;-77
2023/07/06 04:27:35;;;;;;;12.07;4.88;;;;;;;9.80;59.84;101429.38;4984465;28;20597;-75
2023/07/06 04:30:01;;;;;;;10.45;4.80;;;;;;;9.97;59.54;101425.44;4971473;28;20121;-77
2023/07/06 04:32:31;;;;;;;9.15;5.13;;;;;;;10.06;59.64;101439.97;4987698;28;20046;-76
2023/07/06 04:34:57;;;;;;;7.10;4.95;;;;;;;10.34;59.47;101430.41;4984134;28;20077;-74
2023/07/06 04:37:22;;;;;;;7.78;4.60;;;;;;;10.46;58.80;101431.81;4984383;28;20041;-76
2023/07/06 04:39:48;;;;;;;11.10;4.45;;;;;;;10.31;59.34;101432.28;4986472;28;20034;-76
2023/07/06 04:42:14;;;;;;;8.23;5.45;;;;;;;10.40;59.16;101434.63;4986212;28;20084;-76
2023/07/06 04:44:40;;;;;;;7.95;4.38;;;;;;;10.43;58.99;101439.72;4985113;28;20128;-76
2023/07/06 04:47:06;;;;;;;7.43;5.38;;;;;;;10.57;58.75;101442.81;4985722;28;20109;-76
2023/07/06 04:49:31;;;;;;;12.77;4.25;;;;;;;10.68;58.72;101445.06;4982371;28;20050;-76
2023/07/06 04:51:56;;;;;;;7.80;4.63;;;;;;;10.33;59.25;101440.94;4978676;28;20034;-76
2023/07/06 04:54:22;;;;;;;7.82;5.28;;;;;;;10.71;58.82;101446.75;4982535;28;20054;-77
2023/07/06 04:56:47;;;;;;;15.35;4.68;;;;;;;10.76;58.70;101442.22;4976374;28;20029;-75
2023/07/06 04:59:13;;;;;;;8.07;4.85;;;;;;;10.61;59.05;101447.00;4982501;28;20411;-75
2023/07/06 05:01:38;;;;;;;8.75;4.22;;;;;;;10.89;58.90;101446.19;4983265;28;20437;-75
2023/07/06 05:04:04;;;;;;;13.70;4.85;;;;;;;10.94;58.50;101441.66;4984507;28;20038;-76
2023/07/06 05:06:31;;;;;;;7.90;4.38;;;;;;;11.13;58.17;101441.03;4983625;28;20034;-76
2023/07/06 05:08:57;;;;;;;7.18;4.32;;;;;;;11.04;58.20;101443.06;4982797;28;20052;-77
2023/07/06 05:11:25;;;;;;;6.10;4.13;;;;;;;11.24;57.59;101444.16;4982736;28;20050;-76
2023/07/06 05:13:50;;;;;;;16.45;4.80;;;;;;;10.88;58.45;101441.84;4970355;28;20073;-76
2023/07/06 05:16:16;;;;;;;9.07;3.97;;;;;;;11.04;57.65;101443.06;4962908;28;20825;-77
2023/07/06 05:18:43;;;;;;;12.68;5.03;;;;;;;11.56;57.73;101444.81;4965694;28;20392;-75
2023/07/06 05:21:10;;;;;;;8.77;4.35;;;;;;;14.76;52.55;101446.41;4965286;28;20553;-74
2023/07/06 05:23:36;;;;;;;8.00;3.55;;;;;;;16.06;47.59;101442.50;4947081;28;20746;-77
2023/07/06 05:26:02;;;;;;;9.65;4.28;;;;;;;17.21;42.97;101439.50;4965362;28;20034;-76
2023/07/06 05:28:31;;;;;;;8.25;3.80;;;;;;;18.04;41.83;101429.16;4962195;28;20038;-76
2023/07/06 05:30:57;;;;;;;5.63;3.35;;;;;;;17.14;42.37;101432.88;4960286;28;20088;-77
2023/07/06 05:33:23;;;;;;;8.85;3.90;;;;;;;18.46;41.22;101430.06;4963789;28;20050;-76
2023/07/06 05:35:49;;;;;;;6.50;3.03;;;;;;;19.12;37.97;101430.16;4966418;28;20038;-76
2023/07/06 05:38:14;;;;;;;4.63;2.20;;;;;;;19.36;36.86;101429.44;4964720;28;20042;-74
2023/07/06 05:40:40;;;;;;;7.38;2.38;;;;;;;19.43;37.46;101438.66;4967642;28;20519;-76
2023/07/06 05:43:09;;;;;;;3.78;2.28;;;;;;;19.23;40.05;101440.03;4964210;28;20046;-76
2023/07/06 05:45:35;;;;;;;4.22;2.17;;;;;;;19.48;36.81;101447.19;4949515;28;20042;-76
2023/07/06 05:48:01;;;;;;;4.60;2.63;;;;;;;19.55;37.62;101436.97;4970742;28;20038;-76
2023/07/06 05:50:27;;;;;;;4.20;1.95;;;;;;;18.58;39.47;101448.72;4984262;28;20650;-77
2023/07/06 05:52:53;;;;;;;3.72;2.50;;;;;;;19.34;37.67;101445.44;4981145;28;20129;-77
2023/07/06 05:55:18;;;;;;;5.47;2.75;;;;;;;19.29;37.86;101451.06;4967642;28;20038;-76
2023/07/06 05:57:45;;;;;;;5.05;1.77;;;;;;;18.34;38.29;101456.44;4968157;28;20165;-76
2023/07/06 06:00:11;;;;;;;5.00;1.98;;;;;;;19.21;39.58;101452.53;4971328;28;20087;-76
2023/07/06 06:02:37;;;;;;;6.03;1.95;;;;;;;20.25;37.11;101453.25;4971994;28;20058;-76
2023/07/06 06:05:04;;;;;;;3.42;1.75;;;;;;;21.24;34.35;101459.28;4987086;28;20033;-75
2023/07/06 06:07:33;;;;;;;4.93;1.55;;;;;;;21.53;34.76;101459.72;4985044;28;20030;-75
2023/07/06 06:10:03;;;;;;;4.30;2.13;;;;;;;20.84;35.72;101463.16;4968278;28;20953;-76
2023/07/06 06:12:31;;;;;;;4.57;1.58;;;;;;;20.68;35.37;101458.09;4981968;28;20045;-76
2023/07/06 06:14:57;;;;;;;2.90;1.60;;;;;;;21.68;33.84;101469.16;4987407;28;20091;-76
2023/07/06 06:17:23;;;;;;;4.82;1.90;;;;;;;21.60;33.96;101476.94;4985824;28;20058;-75
2023/07/06 06:19:49;;;;;;;4.15;2.30;;;;;;;21.10;37.19;101473.63;4987437;28;20040;-76
2023/07/06 06:22:16;;;;;;;3.20;1.13;;;;;;;21.31;33.35;101477.31;4986828;28;20042;-77
2023/07/06 06:24:43;;;;;;;4.60;0.93;;;;;;;22.10;32.99;101474.78;4984324;28;21134;-77
2023/07/06 06:27:11;;;;;;;5.70;2.42;;;;;;;22.87;33.19;101473.00;4985258;28;20575;-76
2023/07/06 06:29:37;;;;;;;5.55;1.27;;;;;;;22.15;32.28;101477.91;4985150;28;20092;-76
2023/07/06 06:32:03;;;;;;;3.75;1.33;;;;;;;23.34;30.57;101477.06;4972027;28;20754;-76
2023/07/06 06:34:29;;;;;;;3.08;1.27;;;;;;;21.62;33.79;101482.94;4984049;28;20049;-76
2023/07/06 06:36:55;;;;;;;2.65;1.55;;;;;;;22.42;33.83;101492.63;4987926;28;20038;-76
2023/07/06 06:39:21;;;;;;;4.05;1.30;;;;;;;23.17;32.21;101485.59;4984390;28;20128;-75
2023/07/06 06:41:47;;;;;;;1.90;0.90;;;;;;;22.25;32.74;101488.69;4985380;28;20106;-76
2023/07/06 06:44:15;;;;;;;2.92;1.15;;;;;;;23.46;30.04;101479.66;4986178;28;20038;-76
2023/07/06 06:46:41;;;;;;;2.05;1.02;;;;;;;24.17;29.99;101485.88;4988361;28;20567;-76
2023/07/06 06:49:07;;;;;;;6.68;1.38;;;;;;;22.85;32.20;101493.63;4988315;28;20065;-76
2023/07/06 06:51:32;;;;;;;3.47;0.85;;;;;;;23.11;30.94;101494.13;4964880;28;20128;-76
2023/07/06 06:53:58;;;;;;;4.03;0.95;;;;;;;23.24;31.37;101497.44;4973474;28;20144;-77
2023/07/06 06:56:24;;;;;;;3.35;0.75;;;;;;;23.95;30.91;101492.28;4963890;28;20061;-76
2023/07/06 06:58:51;;;;;;;2.10;1.10;;;;;;;25.04;29.09;101498.56;4986320;28;20034;-75
2023/07/06 07:01:17;;;;;;;3.28;0.75;;;;;;;23.97;29.45;101500.16;4967000;28;20033;-77
2023/07/06 07:03:42;;;;;;;2.33;1.10;;;;;;;24.92;30.20;101502.31;4986012;28;20049;-76
2023/07/06 07:06:13;;;;;;;1.60;0.73;;;;;;;26.45;28.55;101508.38;4977773;28;20661;-76
2023/07/06 07:08:39;;;;;;;2.67;1.02;;;;;;;27.28;26.39;101507.34;4988465;28;20594;-76
2023/07/06 07:11:06;;;;;;;2.35;0.95;;;;;;;27.13;25.60;101511.59;4990452;28;20121;-76
2023/07/06 07:13:35;;;;;;;5.38;1.15;;;;;;;27.75;25.25;101506.16;4990177;28;20132;-74
2023/07/06 07:16:02;;;;;;;1.98;0.57;;;;;;;27.01;26.60;101517.16;5007258;28;20069;-76
2023/07/06 07:18:28;;;;;;;3.42;0.68;;;;;;;26.35;25.30;101517.47;4993891;28;20049;-75
2023/07/06 07:20:54;;;;;;;3.13;0.80;;;;;;;24.02;28.37;101511.25;5000273;28;20022;-75
2023/07/06 07:23:24;;;;;;;8.20;1.05;;;;;;;23.94;28.60;101511.09;5009652;28;20029;-74
2023/07/06 07:25:51;;;;;;;6.13;0.90;;;;;;;24.67;28.00;101516.25;5016458;28;20033;-75
2023/07/06 07:28:17;;;;;;;4.53;0.90;;;;;;;25.86;26.65;101517.69;4991996;28;20105;-75
2023/07/06 07:30:54;;;;;;;4.40;0.63;;;;;;;27.23;26.72;101512.34;4965439;28;20034;-76
2023/07/06 07:33:19;;;;;;;1.45;0.88;;;;;;;27.77;23.56;101509.50;5000912;28;20030;-74
2023/07/06 07:35:45;;;;;;;5.30;0.60;;;;;;;26.69;25.57;101512.31;4971361;28;20034;-75
2023/07/06 07:38:10;;;;;;;2.30;0.73;;;;;;;26.23;25.09;101517.69;4989754;28;20814;-76
2023/07/06 07:40:36;;;;;;;3.80;0.77;;;;;;;25.21;27.72;101517.53;4987589;28;20032;-77
2023/07/06 07:43:01;;;;;;;1.95;0.57;;;;;;;26.27;26.22;101515.56;4973881;28;20045;-76
2023/07/06 07:45:28;;;;;;;2.30;0.50;;;;;;;26.05;25.75;101522.13;4990962;28;20057;-78
2023/07/06 07:47:55;;;;;;;3.22;0.90;;;;;;;25.31;27.09;101518.38;4981607;28;20775;-78
2023/07/06 07:50:21;;;;;;;6.80;1.27;;;;;;;24.59;27.10;101525.81;4974875;28;20087;-78
2023/07/06 07:52:48;;;;;;;1.83;0.82;;;;;;;25.34;26.27;101530.63;4974633;28;20543;-79
2023/07/06 07:55:14;;;;;;;4.65;1.10;;;;;;;25.66;25.92;101532.97;4991244;28;20038;-77
2023/07/06 07:57:40;;;;;;;4.97;1.00;;;;;;;26.61;25.40;101536.41;4968605;28;20049;-77
2023/07/06 08:00:09;;;;;;;3.70;0.85;;;;;;;26.75;24.95;101540.38;4989992;28;20061;-77
2023/07/06 08:02:40;;;;;;;6.53;1.10;;;;;;;26.93;24.04;101543.91;4987590;28;20048;-78
2023/07/06 08:05:09;;;;;;;1.40;0.70;;;;;;;25.74;25.55;101551.00;4990953;28;20026;-77
2023/07/06 08:07:34;;;;;;;3.42;0.80;;;;;;;23.29;29.88;101548.59;4986356;28;20072;-80
2023/07/06 08:10:00;;;;;;;2.25;0.90;;;;;;;22.87;30.09;101548.47;4992576;28;20073;-79
2023/07/06 08:12:25;;;;;;;3.80;1.33;;;;;;;22.63;31.65;101550.44;4970681;28;20911;-79
2023/07/06 08:14:51;;;;;;;3.67;1.10;;;;;;;24.30;29.07;101536.38;4990671;28;20494;-78
2023/07/06 08:17:17;;;;;;;3.25;1.40;;;;;;;26.55;26.62;101537.78;4991041;28;20129;-77
2023/07/06 08:19:45;;;;;;;3.65;1.10;;;;;;;26.17;26.16;101552.25;4989238;28;20160;-78
2023/07/06 08:22:11;;;;;;;2.63;1.02;;;;;;;24.72;27.56;101546.06;4971202;28;20061;-80
2023/07/06 08:24:38;;;;;;;9.02;1.40;;;;;;;25.74;26.46;101557.19;4987054;28;20591;-77
2023/07/06 08:27:04;;;;;;;2.33;0.90;;;;;;;23.62;28.72;101550.22;4973222;28;20129;-75
2023/07/06 08:29:31;;;;;;;4.43;1.30;;;;;;;23.13;28.39;101548.16;4983220;28;20098;-75
2023/07/06 08:31:58;;;;;;;7.53;1.10;;;;;;;23.92;29.19;101551.25;4993096;28;20044;-76
2023/07/06 08:34:26;;;;;;;5.63;0.98;;;;;;;22.44;29.69;101559.94;4981031;28;20622;-76
2023/07/06 08:36:53;;;;;;;5.20;1.33;;;;;;;21.78;30.31;101557.13;4982640;28;20590;-76
2023/07/06 08:39:19;;;;;;;3.67;1.13;;;;;;;20.16;33.76;101564.53;4983573;28;20036;-76
2023/07/06 08:41:47;;;;;;;4.05;0.93;;;;;;;20.09;33.98;101556.97;4987741;28;20672;-77
2023/07/06 08:44:14;;;;;;;3.53;0.63;;;;;;;19.40;34.42;101569.63;4966659;28;20041;-77
2023/07/06 08:46:48;;;;;;;4.15;0.70;;;;;;;19.49;33.91;101569.00;4978678;28;20038;-76
2023/07/06 08:49:21;;;;;;;3.70;1.05;;;;;;;18.96;35.80;101572.53;4966229;28;20049;-76
2023/07/06 08:51:49;;;;;;;3.42;0.75;;;;;;;18.35;35.38;101578.09;4979204;28;20041;-77
2023/07/06 08:54:24;;;;;;;2.65;0.60;;;;;;;18.07;37.46;101584.19;4983924;28;20053;-77
2023/07/06 08:56:52;;;;;;;3.58;1.40;;;;;;;17.88;38.23;101588.91;4979324;28;20727;-76
2023/07/06 08:59:32;;;;;;;3.40;0.95;;;;;;;17.48;39.06;101589.44;4983464;28;20030;-77
2023/07/06 09:02:01;;;;;;;6.78;0.77;;;;;;;17.03;39.75;101591.09;4964837;28;20079;-77
2023/07/06 09:04:27;;;;;;;1.65;0.57;;;;;;;17.21;40.01;101595.34;4980447;28;20153;-77
2023/07/06 09:06:56;;;;;;;4.60;1.33;;;;;;;17.23;38.49;101595.28;4960824;28;20053;-77
2023/07/06 09:09:21;;;;;;;2.80;1.58;;;;;;;17.21;38.92;101595.34;4978616;28;20046;-76
2023/07/06 09:11:50;;;;;;;8.73;1.65;;;;;;;17.06;38.86;101593.56;4980041;28;20100;-76
2023/07/06 09:14:20;;;;;;;3.35;0.98;;;;;;;16.95;39.91;101593.31;4982040;28;20029;-77
2023/07/06 09:16:55;;;;;;;5.95;1.25;;;;;;;17.05;39.75;101599.81;4979891;28;20034;-76
2023/07/06 09:19:23;;;;;;;7.18;1.38;;;;;;;17.21;39.79;101598.00;4997494;28;20036;-77
2023/07/06 09:21:53;;;;;;;4.03;1.10;;;;;;;17.61;38.79;101601.00;4961317;28;20034;-76
2023/07/06 09:24:19;;;;;;;3.58;0.98;;;;;;;17.61;39.10;101600.16;4983160;28;20057;-76
2023/07/06 09:26:46;;;;;;;7.63;1.10;;;;;;;18.01;39.12;101603.09;4987490;28;20693;-77
2023/07/06 09:29:19;;;;;;;5.78;0.85;;;;;;;18.22;39.12;101604.44;4988920;28;20034;-76
2023/07/06 09:31:47;;;;;;;3.92;1.08;;;;;;;18.16;38.94;101601.28;4999775;28;20073;-76
2023/07/06 09:34:26;;;;;;;4.28;0.88;;;;;;;18.06;38.77;101612.44;4988206;28;20531;-77
2023/07/06 09:36:51;;;;;;;5.55;1.20;;;;;;;17.84;39.12;101612.03;4994830;28;20061;-77
2023/07/06 09:39:17;;;;;;;3.17;1.23;;;;;;;18.23;38.69;101615.91;4986844;28;20724;-77
2023/07/06 09:41:45;;;;;;;3.88;1.05;;;;;;;18.58;38.57;101613.72;4993326;28;20044;-76
2023/07/06 09:44:15;;;;;;;3.10;0.88;;;;;;;18.42;37.90;101619.09;4997447;28;20614;-75
2023/07/06 09:46:43;;;;;;;2.88;0.73;;;;;;;18.26;38.70;101619.19;4996425;28;20354;-75
2023/07/06 09:49:19;;;;;;;1.60;0.70;;;;;;;18.10;39.39;101628.16;4998226;28;20038;-74
2023/07/06 09:51:56;;;;;;;6.38;2.13;;;;;;;17.69;39.56;101628.78;4985608;28;20042;-75
2023/07/06 09:54:50;;;;;;;1.92;0.90;;;;;;;17.72;39.43;101634.75;4990135;28;20082;-75
2023/07/06 09:57:16;;;;;;;2.50;0.98;;;;;;;17.58;39.37;101635.56;4997890;28;20077;-76
2023/07/06 09:59:46;;;;;;;5.18;1.42;;;;;;;17.76;38.33;101636.28;4987383;28;21057;-75
2023/07/06 10:02:24;;;;;;;5.18;0.75;;;;;;;17.61;39.68;101632.72;5005732;28;20045;-75
2023/07/06 10:05:07;;;;;;;3.30;1.30;;;;;;;17.65;39.01;101639.56;4980428;28;20034;-75
2023/07/06 10:08:00;;;;;;;3.97;1.00;;;;;;;17.55;38.99;101643.66;4983508;28;20057;-76
2023/07/06 10:10:30;;;;;;;5.03;0.52;;;;;;;17.00;39.29;101644.06;4984973;28;20040;-74
2023/07/06 10:13:31;;;;;;;3.85;1.42;;;;;;;17.24;39.98;101644.50;4986734;28;20477;-75
2023/07/06 10:16:02;;;;;;;5.37;0.87;;;;;;;17.26;39.80;101647.06;4973380;28;20647;-76
2023/07/06 10:18:33;;;;;;;1.90;0.32;;;;;;;17.34;38.35;101644.88;4966667;28;20285;-75
2023/07/06 10:21:13;;;;;;;2.53;0.40;;;;;;;17.51;38.77;101662.41;4990744;28;20507;-77
2023/07/06 10:23:51;;;;;;;3.72;0.40;;;;;;;18.26;37.42;101644.81;4969183;28;20110;-75
2023/07/06 10:26:28;;;;;;;1.83;0.60;;;;;;;18.80;36.51;101645.00;5003054;28;20033;-75
2023/07/06 10:29:12;;;;;;;2.35;0.30;;;;;;;19.05;34.84;101649.59;5002686;28;20034;-75
2023/07/06 10:31:44;;;;;;;0.88;0.30;;;;;;;18.90;34.35;101647.97;4984124;28;20172;-76
2023/07/06 10:34:23;;;;;;;2.30;0.50;;;;;;;18.88;35.34;101650.69;4995259;28;20658;-76
2023/07/06 10:36:49;;;;;;;0.80;0.45;;;;;;;18.45;35.29;101661.28;4981552;28;20083;-76
2023/07/06 10:39:23;;;;;;;4.68;0.30;;;;;;;18.28;36.48;101658.81;4984957;28;20488;-77
2023/07/06 10:41:59;;;;;;;2.35;0.50;;;;;;;18.28;35.53;101650.88;4987173;28;20820;-77
2023/07/06 10:44:46;;;;;;;2.28;0.40;;;;;;;18.81;36.11;101651.13;4981472;28;20054;-77
2023/07/06 10:47:37;;;;;;;2.95;0.38;;;;;;;20.06;34.95;101654.50;4987347;28;20042;-76
2023/07/06 10:50:06;;;;;;;4.50;0.57;;;;;;;19.68;33.33;101652.63;4986381;28;20030;-76
2023/07/06 10:52:37;;;;;;;2.65;0.50;;;;;;;20.21;34.70;101645.53;4998008;28;20053;-76
2023/07/06 10:55:10;;;;;;;2.35;0.40;;;;;;;20.62;32.79;101651.56;4986870;28;20038;-77
2023/07/06 10:57:42;;;;;;;3.65;0.40;;;;;;;21.01;31.00;101649.72;4978807;28;20046;-77
2023/07/06 11:00:16;;;;;;;2.58;0.40;;;;;;;22.08;31.88;101647.06;4984959;28;20033;-76
2023/07/06 11:02:45;;;;;;;3.53;0.90;;;;;;;21.26;28.85;101649.59;4973491;28;20042;-76
2023/07/06 11:05:25;;;;;;;3.38;0.47;;;;;;;20.74;31.41;101658.66;4983206;28;20029;-76
2023/07/06 11:07:54;;;;;;;1.55;0.45;;;;;;;20.32;31.82;101663.38;4980977;28;20038;-76
2023/07/06 11:10:25;;;;;;;3.67;0.80;;;;;;;20.17;33.11;101662.59;5000217;28;20088;-76
2023/07/06 11:13:04;;;;;;;1.30;0.40;;;;;;;19.40;33.57;101674.81;4997913;28;20192;-76
2023/07/06 11:15:56;;;;;;;3.67;0.50;;;;;;;18.78;33.54;101678.66;4995570;28;20069;-75
2023/07/06 11:18:21;;;;;;;3.60;0.45;;;;;;;19.09;32.27;101679.41;4960333;28;20312;-77
2023/07/06 11:21:21;;;;;;;2.42;0.55;;;;;;;19.29;33.19;101684.28;4984993;28;20385;-76
2023/07/06 11:23:54;;;;;;;2.70;0.50;;;;;;;19.74;32.65;101678.75;4971442;28;20045;-77
2023/07/06 11:26:34;;;;;;;2.05;0.43;;;;;;;20.65;31.78;101675.25;4984273;28;20045;-77
2023/07/06 11:29:02;;;;;;;5.88;0.45;;;;;;;21.82;30.74;101672.13;4985413;28;20053;-77
2023/07/06 11:31:49;;;;;;;2.85;0.52;;;;;;;21.71;28.36;101670.25;4985655;28;20171;-77
2023/07/06 11:34:28;;;;;;;2.00;0.40;;;;;;;21.23;29.88;101681.75;4978820;28;20719;-76
2023/07/06 11:37:22;;;;;;;1.95;0.35;;;;;;;21.79;28.62;101678.53;4982852;28;20218;-75